Terminal Aerodrome Forecast
Issued by NWS Charleston, WV

Home | Current Version | Previous Version | Text Only | Print | Product List | Glossary On
Versions: 1 2 3 4 5 6 7 8 9 10 11 12 13 14 15 16 17 18 19 20 21 22
118
FTUS41 KRLX 141731
TAFEKN
TAF
KEKN 141731Z 1418/1518 VRB03KT P6SM BKN250
     FM142000 VRB03KT P6SM BKN100
     FM150100 16008KT 3SM -SN OVC035
     FM150300 16009KT 1SM -SN BR OVC010
     FM151500 17008KT 4SM -SNRA BR OVC018=

USA.gov is the U.S. government's official web portal to all federal, state and local government web resources and services.